sensor_id;sensor_type;location;lat;lon;timestamp;P1;durP1;ratioP1;P2;durP2;ratioP2
38859;SDS011;24609;48.316;16.174;2023-08-24T00:01:06;9.65;;;8.65;;
38859;SDS011;24609;48.316;16.174;2023-08-24T00:03:34;9.63;;;8.63;;
38859;SDS011;24609;48.316;16.174;2023-08-24T00:05:59;10.27;;;8.95;;
38859;SDS011;24609;48.316;16.174;2023-08-24T00:08:25;9.98;;;9.07;;
38859;SDS011;24609;48.316;16.174;2023-08-24T00:10:51;9.13;;;8.32;;
38859;SDS011;24609;48.316;16.174;2023-08-24T00:13:17;11.35;;;9.65;;
38859;SDS011;24609;48.316;16.174;2023-08-24T00:15:44;9.82;;;8.43;;
38859;SDS011;24609;48.316;16.174;2023-08-24T00:18:10;10.23;;;9.23;;
38859;SDS011;24609;48.316;16.174;2023-08-24T00:20:36;9.05;;;8.18;;
38859;SDS011;24609;48.316;16.174;2023-08-24T00:23:02;9.75;;;8.70;;
38859;SDS011;24609;48.316;16.174;2023-08-24T00:25:29;9.82;;;8.93;;
38859;SDS011;24609;48.316;16.174;2023-08-24T00:27:55;12.07;;;10.23;;
38859;SDS011;24609;48.316;16.174;2023-08-24T00:30:21;9.82;;;8.82;;
38859;SDS011;24609;48.316;16.174;2023-08-24T00:32:48;10.93;;;9.85;;
38859;SDS011;24609;48.316;16.174;2023-08-24T00:35:13;11.73;;;9.30;;
38859;SDS011;24609;48.316;16.174;2023-08-24T00:37:39;9.63;;;8.77;;
38859;SDS011;24609;48.316;16.174;2023-08-24T00:40:06;11.90;;;10.52;;
38859;SDS011;24609;48.316;16.174;2023-08-24T00:42:38;11.57;;;10.57;;
38859;SDS011;24609;48.316;16.174;2023-08-24T00:45:05;10.93;;;9.82;;
38859;SDS011;24609;48.316;16.174;2023-08-24T00:47:31;12.73;;;11.35;;
38859;SDS011;24609;48.316;16.174;2023-08-24T00:49:57;12.82;;;11.57;;
38859;SDS011;24609;48.316;16.174;2023-08-24T00:52:25;10.52;;;9.52;;
38859;SDS011;24609;48.316;16.174;2023-08-24T00:54:54;9.80;;;8.90;;
38859;SDS011;24609;48.316;16.174;2023-08-24T00:57:20;11.40;;;10.32;;
38859;SDS011;24609;48.316;16.174;2023-08-24T00:59:46;15.30;;;13.73;;
38859;SDS011;24609;48.316;16.174;2023-08-24T01:02:12;14.80;;;13.27;;
38859;SDS011;24609;48.316;16.174;2023-08-24T01:04:40;11.48;;;9.93;;
38859;SDS011;24609;48.316;16.174;2023-08-24T01:07:08;10.82;;;9.73;;
38859;SDS011;24609;48.316;16.174;2023-08-24T01:09:35;10.38;;;9.32;;
38859;SDS011;24609;48.316;16.174;2023-08-24T01:15:07;11.00;;;9.90;;
38859;SDS011;24609;48.316;16.174;2023-08-24T01:17:28;10.90;;;9.90;;
38859;SDS011;24609;48.316;16.174;2023-08-24T01:19:55;11.13;;;10.10;;
38859;SDS011;24609;48.316;16.174;2023-08-24T01:22:30;11.52;;;10.32;;
38859;SDS011;24609;48.316;16.174;2023-08-24T01:27:42;11.27;;;10.00;;
38859;SDS011;24609;48.316;16.174;2023-08-24T01:30:10;9.93;;;9.05;;
38859;SDS011;24609;48.316;16.174;2023-08-24T01:32:35;12.15;;;9.93;;
38859;SDS011;24609;48.316;16.174;2023-08-24T01:35:02;12.63;;;10.18;;
38859;SDS011;24609;48.316;16.174;2023-08-24T01:37:33;10.05;;;9.18;;
38859;SDS011;24609;48.316;16.174;2023-08-24T01:42:59;10.68;;;9.57;;
38859;SDS011;24609;48.316;16.174;2023-08-24T01:45:25;11.88;;;10.07;;
38859;SDS011;24609;48.316;16.174;2023-08-24T01:47:54;11.23;;;10.13;;
38859;SDS011;24609;48.316;16.174;2023-08-24T01:50:21;10.75;;;9.65;;
38859;SDS011;24609;48.316;16.174;2023-08-24T01:52:47;13.30;;;12.10;;
38859;SDS011;24609;48.316;16.174;2023-08-24T01:55:13;14.00;;;9.80;;
38859;SDS011;24609;48.316;16.174;2023-08-24T01:57:40;10.32;;;9.43;;
38859;SDS011;24609;48.316;16.174;2023-08-24T02:00:06;9.93;;;9.07;;
38859;SDS011;24609;48.316;16.174;2023-08-24T02:02:34;11.18;;;10.18;;
38859;SDS011;24609;48.316;16.174;2023-08-24T02:05:00;9.82;;;8.82;;
38859;SDS011;24609;48.316;16.174;2023-08-24T02:07:26;12.93;;;9.77;;
38859;SDS011;24609;48.316;16.174;2023-08-24T02:09:51;12.00;;;10.77;;
38859;SDS011;24609;48.316;16.174;2023-08-24T02:12:17;11.63;;;10.40;;
38859;SDS011;24609;48.316;16.174;2023-08-24T02:14:42;9.82;;;8.82;;
38859;SDS011;24609;48.316;16.174;2023-08-24T02:17:08;10.90;;;9.32;;
38859;SDS011;24609;48.316;16.174;2023-08-24T02:19:34;11.73;;;10.55;;
38859;SDS011;24609;48.316;16.174;2023-08-24T02:22:00;11.88;;;10.43;;
38859;SDS011;24609;48.316;16.174;2023-08-24T02:24:25;12.20;;;11.02;;
38859;SDS011;24609;48.316;16.174;2023-08-24T02:26:51;10.55;;;9.45;;
38859;SDS011;24609;48.316;16.174;2023-08-24T02:29:17;11.63;;;10.45;;
38859;SDS011;24609;48.316;16.174;2023-08-24T02:31:42;10.75;;;9.68;;
38859;SDS011;24609;48.316;16.174;2023-08-24T02:34:08;10.40;;;9.27;;
38859;SDS011;24609;48.316;16.174;2023-08-24T02:36:34;9.95;;;8.85;;
38859;SDS011;24609;48.316;16.174;2023-08-24T02:39:00;14.90;;;11.18;;
38859;SDS011;24609;48.316;16.174;2023-08-24T02:41:26;14.07;;;12.73;;
38859;SDS011;24609;48.316;16.174;2023-08-24T02:43:52;13.02;;;11.82;;
38859;SDS011;24609;48.316;16.174;2023-08-24T02:46:18;15.20;;;13.60;;
38859;SDS011;24609;48.316;16.174;2023-08-24T02:48:44;14.98;;;12.68;;
38859;SDS011;24609;48.316;16.174;2023-08-24T02:51:09;12.63;;;11.32;;
38859;SDS011;24609;48.316;16.174;2023-08-24T02:53:35;12.18;;;10.02;;
38859;SDS011;24609;48.316;16.174;2023-08-24T02:56:02;10.55;;;9.65;;
38859;SDS011;24609;48.316;16.174;2023-08-24T02:58:28;11.73;;;10.52;;
38859;SDS011;24609;48.316;16.174;2023-08-24T03:00:54;9.85;;;8.95;;
38859;SDS011;24609;48.316;16.174;2023-08-24T03:03:20;9.23;;;8.43;;
38859;SDS011;24609;48.316;16.174;2023-08-24T03:05:59;10.30;;;9.07;;
38859;SDS011;24609;48.316;16.174;2023-08-24T03:08:30;13.50;;;9.93;;
38859;SDS011;24609;48.316;16.174;2023-08-24T03:10:57;11.63;;;10.52;;
38859;SDS011;24609;48.316;16.174;2023-08-24T03:13:24;12.15;;;9.98;;
38859;SDS011;24609;48.316;16.174;2023-08-24T03:15:50;9.18;;;8.25;;
38859;SDS011;24609;48.316;16.174;2023-08-24T03:18:17;10.48;;;9.48;;
38859;SDS011;24609;48.316;16.174;2023-08-24T03:20:46;11.77;;;10.68;;
38859;SDS011;24609;48.316;16.174;2023-08-24T03:23:13;11.05;;;9.95;;
38859;SDS011;24609;48.316;16.174;2023-08-24T03:25:39;15.73;;;12.00;;
38859;SDS011;24609;48.316;16.174;2023-08-24T03:28:06;13.95;;;11.48;;
38859;SDS011;24609;48.316;16.174;2023-08-24T03:30:37;13.35;;;9.95;;
38859;SDS011;24609;48.316;16.174;2023-08-24T03:33:05;11.43;;;10.30;;
38859;SDS011;24609;48.316;16.174;2023-08-24T03:35:31;11.30;;;10.00;;
38859;SDS011;24609;48.316;16.174;2023-08-24T03:37:57;10.15;;;9.30;;
38859;SDS011;24609;48.316;16.174;2023-08-24T03:40:23;11.45;;;10.32;;
38859;SDS011;24609;48.316;16.174;2023-08-24T03:42:49;12.10;;;10.93;;
38859;SDS011;24609;48.316;16.174;2023-08-24T03:45:15;11.00;;;9.75;;
38859;SDS011;24609;48.316;16.174;2023-08-24T03:47:41;11.82;;;10.25;;
38859;SDS011;24609;48.316;16.174;2023-08-24T03:50:06;13.32;;;11.82;;
38859;SDS011;24609;48.316;16.174;2023-08-24T03:52:32;10.70;;;9.57;;
38859;SDS011;24609;48.316;16.174;2023-08-24T03:54:58;16.98;;;12.63;;
38859;SDS011;24609;48.316;16.174;2023-08-24T03:57:24;12.73;;;10.90;;
38859;SDS011;24609;48.316;16.174;2023-08-24T03:59:49;10.73;;;9.73;;
38859;SDS011;24609;48.316;16.174;2023-08-24T04:02:15;10.40;;;9.40;;
38859;SDS011;24609;48.316;16.174;2023-08-24T04:04:41;11.65;;;9.70;;
38859;SDS011;24609;48.316;16.174;2023-08-24T04:07:07;10.90;;;9.90;;
38859;SDS011;24609;48.316;16.174;2023-08-24T04:09:32;13.43;;;12.15;;
38859;SDS011;24609;48.316;16.174;2023-08-24T04:11:58;11.43;;;10.32;;
38859;SDS011;24609;48.316;16.174;2023-08-24T04:14:24;12.85;;;11.55;;
38859;SDS011;24609;48.316;16.174;2023-08-24T04:16:49;13.98;;;11.18;;
38859;SDS011;24609;48.316;16.174;2023-08-24T04:19:15;11.70;;;10.50;;
38859;SDS011;24609;48.316;16.174;2023-08-24T04:21:40;12.30;;;9.98;;
38859;SDS011;24609;48.316;16.174;2023-08-24T04:24:06;13.77;;;12.57;;
38859;SDS011;24609;48.316;16.174;2023-08-24T04:26:32;14.48;;;13.15;;
38859;SDS011;24609;48.316;16.174;2023-08-24T04:28:58;13.32;;;11.95;;
38859;SDS011;24609;48.316;16.174;2023-08-24T04:31:23;15.25;;;12.45;;
38859;SDS011;24609;48.316;16.174;2023-08-24T04:33:49;15.05;;;12.68;;
38859;SDS011;24609;48.316;16.174;2023-08-24T04:36:15;17.00;;;13.15;;
38859;SDS011;24609;48.316;16.174;2023-08-24T04:38:41;12.50;;;10.50;;
38859;SDS011;24609;48.316;16.174;2023-08-24T04:41:07;15.32;;;13.75;;
38859;SDS011;24609;48.316;16.174;2023-08-24T04:43:34;14.25;;;12.75;;
38859;SDS011;24609;48.316;16.174;2023-08-24T04:46:01;12.90;;;11.70;;
38859;SDS011;24609;48.316;16.174;2023-08-24T04:48:27;12.13;;;10.95;;
38859;SDS011;24609;48.316;16.174;2023-08-24T04:50:57;12.27;;;10.93;;
38859;SDS011;24609;48.316;16.174;2023-08-24T04:53:23;13.25;;;11.68;;
38859;SDS011;24609;48.316;16.174;2023-08-24T04:55:49;13.13;;;11.40;;
38859;SDS011;24609;48.316;16.174;2023-08-24T04:58:15;13.10;;;10.50;;
38859;SDS011;24609;48.316;16.174;2023-08-24T05:00:41;11.88;;;10.77;;
38859;SDS011;24609;48.316;16.174;2023-08-24T05:03:07;11.50;;;10.40;;
38859;SDS011;24609;48.316;16.174;2023-08-24T05:05:33;12.40;;;10.23;;
38859;SDS011;24609;48.316;16.174;2023-08-24T05:08:00;11.68;;;10.45;;
38859;SDS011;24609;48.316;16.174;2023-08-24T05:10:31;20.85;;;12.73;;
38859;SDS011;24609;48.316;16.174;2023-08-24T05:12:59;15.48;;;14.07;;
38859;SDS011;24609;48.316;16.174;2023-08-24T05:15:25;18.30;;;16.08;;
38859;SDS011;24609;48.316;16.174;2023-08-24T05:17:51;16.45;;;14.82;;
38859;SDS011;24609;48.316;16.174;2023-08-24T05:20:19;16.80;;;15.03;;
38859;SDS011;24609;48.316;16.174;2023-08-24T05:22:46;21.25;;;16.90;;
38859;SDS011;24609;48.316;16.174;2023-08-24T05:25:12;17.15;;;15.50;;
38859;SDS011;24609;48.316;16.174;2023-08-24T05:27:38;18.15;;;16.08;;
38859;SDS011;24609;48.316;16.174;2023-08-24T05:30:04;18.48;;;15.27;;
38859;SDS011;24609;48.316;16.174;2023-08-24T05:32:31;17.85;;;16.05;;
38859;SDS011;24609;48.316;16.174;2023-08-24T05:34:57;19.23;;;14.75;;
38859;SDS011;24609;48.316;16.174;2023-08-24T05:37:23;17.10;;;15.40;;
38859;SDS011;24609;48.316;16.174;2023-08-24T05:39:49;16.25;;;14.57;;
38859;SDS011;24609;48.316;16.174;2023-08-24T05:42:15;17.02;;;15.23;;
38859;SDS011;24609;48.316;16.174;2023-08-24T05:44:40;16.88;;;15.18;;
38859;SDS011;24609;48.316;16.174;2023-08-24T05:47:06;18.65;;;16.90;;
38859;SDS011;24609;48.316;16.174;2023-08-24T05:49:32;18.23;;;14.52;;
38859;SDS011;24609;48.316;16.174;2023-08-24T05:51:58;16.17;;;14.57;;
38859;SDS011;24609;48.316;16.174;2023-08-24T05:54:23;16.73;;;15.13;;
38859;SDS011;24609;48.316;16.174;2023-08-24T05:56:49;17.15;;;14.93;;
38859;SDS011;24609;48.316;16.174;2023-08-24T05:59:15;13.52;;;12.13;;
38859;SDS011;24609;48.316;16.174;2023-08-24T06:01:41;16.33;;;14.63;;
38859;SDS011;24609;48.316;16.174;2023-08-24T06:04:09;15.88;;;14.48;;
38859;SDS011;24609;48.316;16.174;2023-08-24T06:06:36;14.90;;;13.35;;
38859;SDS011;24609;48.316;16.174;2023-08-24T06:09:02;15.73;;;13.13;;
38859;SDS011;24609;48.316;16.174;2023-08-24T06:13:59;12.48;;;11.18;;
38859;SDS011;24609;48.316;16.174;2023-08-24T06:16:25;12.90;;;11.32;;
38859;SDS011;24609;48.316;16.174;2023-08-24T06:18:50;11.98;;;10.88;;
38859;SDS011;24609;48.316;16.174;2023-08-24T06:21:16;15.52;;;12.70;;
38859;SDS011;24609;48.316;16.174;2023-08-24T06:23:42;15.10;;;11.32;;
38859;SDS011;24609;48.316;16.174;2023-08-24T06:26:09;19.42;;;13.25;;
38859;SDS011;24609;48.316;16.174;2023-08-24T06:28:35;15.02;;;11.85;;
38859;SDS011;24609;48.316;16.174;2023-08-24T06:31:01;11.93;;;10.63;;
38859;SDS011;24609;48.316;16.174;2023-08-24T06:33:33;13.35;;;9.23;;
38859;SDS011;24609;48.316;16.174;2023-08-24T06:35:59;9.68;;;8.57;;
38859;SDS011;24609;48.316;16.174;2023-08-24T06:38:26;14.05;;;10.32;;
38859;SDS011;24609;48.316;16.174;2023-08-24T06:40:52;14.30;;;9.00;;
38859;SDS011;24609;48.316;16.174;2023-08-24T06:43:17;14.10;;;9.50;;
38859;SDS011;24609;48.316;16.174;2023-08-24T06:45:46;21.85;;;12.02;;
38859;SDS011;24609;48.316;16.174;2023-08-24T06:48:11;23.15;;;10.73;;
38859;SDS011;24609;48.316;16.174;2023-08-24T06:50:37;17.88;;;11.27;;
38859;SDS011;24609;48.316;16.174;2023-08-24T06:53:03;15.10;;;10.43;;
38859;SDS011;24609;48.316;16.174;2023-08-24T06:55:29;11.50;;;9.25;;
38859;SDS011;24609;48.316;16.174;2023-08-24T06:57:55;10.20;;;7.90;;
38859;SDS011;24609;48.316;16.174;2023-08-24T07:00:21;12.23;;;8.43;;
38859;SDS011;24609;48.316;16.174;2023-08-24T07:02:48;14.35;;;8.90;;
38859;SDS011;24609;48.316;16.174;2023-08-24T07:05:15;15.98;;;10.65;;
38859;SDS011;24609;48.316;16.174;2023-08-24T07:07:44;16.92;;;10.40;;
38859;SDS011;24609;48.316;16.174;2023-08-24T07:10:14;9.15;;;8.25;;
38859;SDS011;24609;48.316;16.174;2023-08-24T07:12:40;10.73;;;9.50;;
38859;SDS011;24609;48.316;16.174;2023-08-24T07:15:06;10.40;;;8.60;;
38859;SDS011;24609;48.316;16.174;2023-08-24T07:17:36;13.00;;;8.13;;
38859;SDS011;24609;48.316;16.174;2023-08-24T07:20:02;10.35;;;8.73;;
38859;SDS011;24609;48.316;16.174;2023-08-24T07:22:30;12.45;;;8.10;;
38859;SDS011;24609;48.316;16.174;2023-08-24T07:24:56;11.23;;;8.15;;
38859;SDS011;24609;48.316;16.174;2023-08-24T07:27:22;11.38;;;8.77;;
38859;SDS011;24609;48.316;16.174;2023-08-24T07:29:48;13.38;;;11.30;;
38859;SDS011;24609;48.316;16.174;2023-08-24T07:32:13;11.52;;;7.85;;
38859;SDS011;24609;48.316;16.174;2023-08-24T07:34:39;10.23;;;8.98;;
38859;SDS011;24609;48.316;16.174;2023-08-24T07:37:05;9.02;;;8.23;;
38859;SDS011;24609;48.316;16.174;2023-08-24T07:39:32;12.35;;;10.43;;
38859;SDS011;24609;48.316;16.174;2023-08-24T07:41:58;9.88;;;8.88;;
38859;SDS011;24609;48.316;16.174;2023-08-24T07:44:23;11.07;;;8.85;;
38859;SDS011;24609;48.316;16.174;2023-08-24T07:46:49;11.25;;;10.15;;
38859;SDS011;24609;48.316;16.174;2023-08-24T07:49:15;10.40;;;8.95;;
38859;SDS011;24609;48.316;16.174;2023-08-24T07:51:40;9.60;;;8.55;;
38859;SDS011;24609;48.316;16.174;2023-08-24T07:54:08;10.00;;;8.98;;
38859;SDS011;24609;48.316;16.174;2023-08-24T07:56:33;11.70;;;10.48;;
38859;SDS011;24609;48.316;16.174;2023-08-24T07:58:59;11.55;;;10.35;;
38859;SDS011;24609;48.316;16.174;2023-08-24T08:01:25;14.15;;;10.48;;
38859;SDS011;24609;48.316;16.174;2023-08-24T08:03:51;12.00;;;9.63;;
38859;SDS011;24609;48.316;16.174;2023-08-24T08:06:17;11.75;;;9.88;;
38859;SDS011;24609;48.316;16.174;2023-08-24T08:08:43;10.00;;;8.75;;
38859;SDS011;24609;48.316;16.174;2023-08-24T08:11:10;11.57;;;9.85;;
38859;SDS011;24609;48.316;16.174;2023-08-24T08:13:36;11.43;;;9.85;;
38859;SDS011;24609;48.316;16.174;2023-08-24T08:16:02;12.32;;;10.18;;
38859;SDS011;24609;48.316;16.174;2023-08-24T08:18:32;13.25;;;8.23;;
38859;SDS011;24609;48.316;16.174;2023-08-24T08:20:59;9.80;;;8.48;;
38859;SDS011;24609;48.316;16.174;2023-08-24T08:23:25;10.40;;;7.88;;
38859;SDS011;24609;48.316;16.174;2023-08-24T08:25:51;8.95;;;8.05;;
38859;SDS011;24609;48.316;16.174;2023-08-24T08:28:17;9.73;;;8.30;;
38859;SDS011;24609;48.316;16.174;2023-08-24T08:30:43;11.60;;;8.38;;
38859;SDS011;24609;48.316;16.174;2023-08-24T08:33:09;9.45;;;8.55;;
38859;SDS011;24609;48.316;16.174;2023-08-24T08:35:35;13.35;;;9.20;;
38859;SDS011;24609;48.316;16.174;2023-08-24T08:38:03;11.40;;;9.02;;
38859;SDS011;24609;48.316;16.174;2023-08-24T08:40:30;11.15;;;7.93;;
38859;SDS011;24609;48.316;16.174;2023-08-24T08:42:57;10.95;;;7.55;;
38859;SDS011;24609;48.316;16.174;2023-08-24T08:45:26;8.10;;;6.97;;
38859;SDS011;24609;48.316;16.174;2023-08-24T08:48:00;10.52;;;7.45;;
38859;SDS011;24609;48.316;16.174;2023-08-24T08:50:26;8.25;;;7.43;;
38859;SDS011;24609;48.316;16.174;2023-08-24T08:52:52;8.50;;;7.10;;
38859;SDS011;24609;48.316;16.174;2023-08-24T08:55:18;7.75;;;6.95;;
38859;SDS011;24609;48.316;16.174;2023-08-24T08:57:45;8.18;;;7.00;;
38859;SDS011;24609;48.316;16.174;2023-08-24T09:00:13;9.05;;;7.18;;
38859;SDS011;24609;48.316;16.174;2023-08-24T09:02:43;7.60;;;6.90;;
38859;SDS011;24609;48.316;16.174;2023-08-24T09:05:10;9.00;;;7.78;;
38859;SDS011;24609;48.316;16.174;2023-08-24T09:07:39;8.85;;;7.45;;
38859;SDS011;24609;48.316;16.174;2023-08-24T09:10:05;8.30;;;6.78;;
38859;SDS011;24609;48.316;16.174;2023-08-24T09:12:32;8.45;;;6.85;;
38859;SDS011;24609;48.316;16.174;2023-08-24T09:14:59;7.35;;;6.57;;
38859;SDS011;24609;48.316;16.174;2023-08-24T09:17:25;7.22;;;6.53;;
38859;SDS011;24609;48.316;16.174;2023-08-24T09:19:51;7.57;;;6.72;;
38859;SDS011;24609;48.316;16.174;2023-08-24T09:22:18;9.18;;;6.53;;
38859;SDS011;24609;48.316;16.174;2023-08-24T09:24:44;7.50;;;6.80;;
38859;SDS011;24609;48.316;16.174;2023-08-24T09:27:17;8.07;;;6.13;;
38859;SDS011;24609;48.316;16.174;2023-08-24T09:29:52;9.48;;;6.55;;
38859;SDS011;24609;48.316;16.174;2023-08-24T09:32:26;9.40;;;6.20;;
38859;SDS011;24609;48.316;16.174;2023-08-24T09:34:53;7.75;;;5.63;;
38859;SDS011;24609;48.316;16.174;2023-08-24T09:37:19;7.43;;;5.88;;
38859;SDS011;24609;48.316;16.174;2023-08-24T09:39:46;6.32;;;5.60;;
38859;SDS011;24609;48.316;16.174;2023-08-24T09:42:12;7.38;;;5.90;;
38859;SDS011;24609;48.316;16.174;2023-08-24T09:44:38;8.57;;;6.25;;
38859;SDS011;24609;48.316;16.174;2023-08-24T09:47:10;7.25;;;5.38;;
38859;SDS011;24609;48.316;16.174;2023-08-24T09:49:36;8.43;;;5.60;;
38859;SDS011;24609;48.316;16.174;2023-08-24T09:52:02;10.18;;;6.13;;
38859;SDS011;24609;48.316;16.174;2023-08-24T09:54:30;7.18;;;5.53;;
38859;SDS011;24609;48.316;16.174;2023-08-24T09:57:00;8.13;;;6.40;;
38859;SDS011;24609;48.316;16.174;2023-08-24T09:59:28;6.13;;;5.53;;
38859;SDS011;24609;48.316;16.174;2023-08-24T10:01:56;7.55;;;5.22;;
38859;SDS011;24609;48.316;16.174;2023-08-24T10:04:25;6.43;;;5.60;;
38859;SDS011;24609;48.316;16.174;2023-08-24T10:06:59;10.43;;;6.60;;
38859;SDS011;24609;48.316;16.174;2023-08-24T10:09:31;6.60;;;5.45;;
38859;SDS011;24609;48.316;16.174;2023-08-24T10:12:04;8.27;;;5.68;;
38859;SDS011;24609;48.316;16.174;2023-08-24T10:14:32;6.05;;;5.53;;
38859;SDS011;24609;48.316;16.174;2023-08-24T10:17:29;8.70;;;6.18;;
38859;SDS011;24609;48.316;16.174;2023-08-24T10:19:57;7.43;;;5.50;;
38859;SDS011;24609;48.316;16.174;2023-08-24T10:22:30;8.05;;;5.60;;
38859;SDS011;24609;48.316;16.174;2023-08-24T10:24:56;6.75;;;5.88;;
38859;SDS011;24609;48.316;16.174;2023-08-24T10:27:22;6.55;;;5.55;;
38859;SDS011;24609;48.316;16.174;2023-08-24T10:29:51;7.07;;;6.38;;
38859;SDS011;24609;48.316;16.174;2023-08-24T10:32:17;7.38;;;4.63;;
38859;SDS011;24609;48.316;16.174;2023-08-24T10:34:46;7.45;;;5.43;;
38859;SDS011;24609;48.316;16.174;2023-08-24T10:37:12;5.88;;;5.38;;
38859;SDS011;24609;48.316;16.174;2023-08-24T10:39:38;8.07;;;4.95;;
38859;SDS011;24609;48.316;16.174;2023-08-24T10:42:10;8.15;;;5.55;;
38859;SDS011;24609;48.316;16.174;2023-08-24T10:44:37;9.15;;;5.25;;
38859;SDS011;24609;48.316;16.174;2023-08-24T10:47:22;5.53;;;5.03;;
38859;SDS011;24609;48.316;16.174;2023-08-24T10:52:24;11.48;;;5.47;;
38859;SDS011;24609;48.316;16.174;2023-08-24T10:54:51;7.10;;;5.60;;
38859;SDS011;24609;48.316;16.174;2023-08-24T10:57:19;7.50;;;5.78;;
38859;SDS011;24609;48.316;16.174;2023-08-24T10:59:56;7.32;;;5.53;;
38859;SDS011;24609;48.316;16.174;2023-08-24T11:02:47;6.05;;;5.40;;
38859;SDS011;24609;48.316;16.174;2023-08-24T11:07:56;6.88;;;5.05;;
38859;SDS011;24609;48.316;16.174;2023-08-24T11:10:25;6.13;;;5.53;;
38859;SDS011;24609;48.316;16.174;2023-08-24T11:13:06;6.93;;;5.30;;
38859;SDS011;24609;48.316;16.174;2023-08-24T11:15:33;6.00;;;5.05;;
38859;SDS011;24609;48.316;16.174;2023-08-24T11:18:12;9.35;;;5.43;;
38859;SDS011;24609;48.316;16.174;2023-08-24T11:20:52;6.78;;;5.30;;
38859;SDS011;24609;48.316;16.174;2023-08-24T11:23:25;4.97;;;4.57;;
38859;SDS011;24609;48.316;16.174;2023-08-24T11:25:52;6.20;;;5.10;;
38859;SDS011;24609;48.316;16.174;2023-08-24T11:28:22;4.95;;;4.45;;
38859;SDS011;24609;48.316;16.174;2023-08-24T11:30:50;9.02;;;5.55;;
38859;SDS011;24609;48.316;16.174;2023-08-24T11:33:17;9.27;;;4.60;;
38859;SDS011;24609;48.316;16.174;2023-08-24T11:35:53;7.25;;;5.03;;
38859;SDS011;24609;48.316;16.174;2023-08-24T11:38:19;10.13;;;6.22;;
38859;SDS011;24609;48.316;16.174;2023-08-24T11:40:45;6.00;;;5.40;;
38859;SDS011;24609;48.316;16.174;2023-08-24T11:43:10;5.88;;;5.38;;
38859;SDS011;24609;48.316;16.174;2023-08-24T11:45:36;6.43;;;5.82;;
38859;SDS011;24609;48.316;16.174;2023-08-24T11:48:04;5.28;;;4.88;;
38859;SDS011;24609;48.316;16.174;2023-08-24T11:50:30;5.78;;;4.95;;
38859;SDS011;24609;48.316;16.174;2023-08-24T11:52:56;9.07;;;5.35;;
38859;SDS011;24609;48.316;16.174;2023-08-24T11:55:25;6.03;;;5.15;;
38859;SDS011;24609;48.316;16.174;2023-08-24T11:57:51;6.35;;;5.07;;
38859;SDS011;24609;48.316;16.174;2023-08-24T12:00:20;5.90;;;4.80;;
38859;SDS011;24609;48.316;16.174;2023-08-24T12:02:46;6.85;;;4.75;;
38859;SDS011;24609;48.316;16.174;2023-08-24T12:05:22;6.13;;;4.28;;
38859;SDS011;24609;48.316;16.174;2023-08-24T12:07:49;7.35;;;4.82;;
38859;SDS011;24609;48.316;16.174;2023-08-24T12:10:19;6.10;;;4.38;;
38859;SDS011;24609;48.316;16.174;2023-08-24T12:12:45;7.20;;;4.63;;
38859;SDS011;24609;48.316;16.174;2023-08-24T12:15:14;6.32;;;4.28;;
38859;SDS011;24609;48.316;16.174;2023-08-24T12:17:45;3.90;;;3.50;;
38859;SDS011;24609;48.316;16.174;2023-08-24T12:20:17;5.32;;;3.38;;
38859;SDS011;24609;48.316;16.174;2023-08-24T12:22:49;5.35;;;3.67;;
38859;SDS011;24609;48.316;16.174;2023-08-24T12:25:21;3.75;;;3.38;;
38859;SDS011;24609;48.316;16.174;2023-08-24T12:27:48;4.00;;;3.45;;
38859;SDS011;24609;48.316;16.174;2023-08-24T12:30:13;5.35;;;3.90;;
38859;SDS011;24609;48.316;16.174;2023-08-24T12:32:46;5.13;;;3.80;;
38859;SDS011;24609;48.316;16.174;2023-08-24T12:35:15;8.55;;;3.75;;
38859;SDS011;24609;48.316;16.174;2023-08-24T12:37:41;5.00;;;3.50;;
38859;SDS011;24609;48.316;16.174;2023-08-24T12:40:07;4.88;;;4.05;;
38859;SDS011;24609;48.316;16.174;2023-08-24T12:42:33;7.15;;;3.70;;
38859;SDS011;24609;48.316;16.174;2023-08-24T12:44:59;4.80;;;4.40;;
38859;SDS011;24609;48.316;16.174;2023-08-24T12:47:25;4.15;;;3.72;;
38859;SDS011;24609;48.316;16.174;2023-08-24T12:49:51;7.78;;;4.30;;
38859;SDS011;24609;48.316;16.174;2023-08-24T12:52:19;7.20;;;4.10;;
38859;SDS011;24609;48.316;16.174;2023-08-24T12:54:45;5.88;;;3.85;;
38859;SDS011;24609;48.316;16.174;2023-08-24T12:57:10;5.35;;;3.85;;
38859;SDS011;24609;48.316;16.174;2023-08-24T12:59:36;4.32;;;3.85;;
38859;SDS011;24609;48.316;16.174;2023-08-24T13:02:02;4.60;;;4.00;;
38859;SDS011;24609;48.316;16.174;2023-08-24T13:04:29;6.78;;;3.97;;
38859;SDS011;24609;48.316;16.174;2023-08-24T13:06:57;4.15;;;3.78;;
38859;SDS011;24609;48.316;16.174;2023-08-24T13:09:23;4.88;;;4.05;;
38859;SDS011;24609;48.316;16.174;2023-08-24T13:11:49;5.05;;;3.92;;
38859;SDS011;24609;48.316;16.174;2023-08-24T13:14:15;5.45;;;3.72;;
38859;SDS011;24609;48.316;16.174;2023-08-24T13:16:40;4.65;;;3.83;;
38859;SDS011;24609;48.316;16.174;2023-08-24T13:19:06;5.55;;;4.00;;
38859;SDS011;24609;48.316;16.174;2023-08-24T13:21:32;5.03;;;3.85;;
38859;SDS011;24609;48.316;16.174;2023-08-24T13:23:58;4.63;;;3.80;;
38859;SDS011;24609;48.316;16.174;2023-08-24T13:26:24;4.78;;;3.78;;
38859;SDS011;24609;48.316;16.174;2023-08-24T13:28:50;6.40;;;3.58;;
38859;SDS011;24609;48.316;16.174;2023-08-24T13:31:16;4.10;;;3.70;;
38859;SDS011;24609;48.316;16.174;2023-08-24T13:33:42;5.78;;;3.65;;
38859;SDS011;24609;48.316;16.174;2023-08-24T13:36:07;4.22;;;3.45;;
38859;SDS011;24609;48.316;16.174;2023-08-24T13:38:33;4.00;;;3.53;;
38859;SDS011;24609;48.316;16.174;2023-08-24T13:40:59;4.75;;;3.95;;
38859;SDS011;24609;48.316;16.174;2023-08-24T13:43:24;4.72;;;3.67;;
38859;SDS011;24609;48.316;16.174;2023-08-24T13:45:50;4.05;;;3.70;;
38859;SDS011;24609;48.316;16.174;2023-08-24T13:48:16;6.57;;;3.40;;
38859;SDS011;24609;48.316;16.174;2023-08-24T13:50:41;3.70;;;3.17;;
38859;SDS011;24609;48.316;16.174;2023-08-24T13:53:14;3.60;;;3.30;;
38859;SDS011;24609;48.316;16.174;2023-08-24T13:55:40;3.85;;;3.55;;
38859;SDS011;24609;48.316;16.174;2023-08-24T13:58:05;4.38;;;3.33;;
38859;SDS011;24609;48.316;16.174;2023-08-24T14:00:31;4.82;;;3.40;;
38859;SDS011;24609;48.316;16.174;2023-08-24T14:02:57;3.13;;;2.90;;
38859;SDS011;24609;48.316;16.174;2023-08-24T14:05:22;5.65;;;3.30;;
38859;SDS011;24609;48.316;16.174;2023-08-24T14:07:48;4.45;;;3.28;;
38859;SDS011;24609;48.316;16.174;2023-08-24T14:10:15;4.32;;;3.40;;
38859;SDS011;24609;48.316;16.174;2023-08-24T14:12:41;3.50;;;3.20;;
38859;SDS011;24609;48.316;16.174;2023-08-24T14:15:06;6.32;;;3.50;;
38859;SDS011;24609;48.316;16.174;2023-08-24T14:17:32;5.80;;;3.83;;
38859;SDS011;24609;48.316;16.174;2023-08-24T14:19:58;5.40;;;3.33;;
38859;SDS011;24609;48.316;16.174;2023-08-24T14:22:25;4.63;;;3.67;;
38859;SDS011;24609;48.316;16.174;2023-08-24T14:24:50;6.18;;;3.83;;
38859;SDS011;24609;48.316;16.174;2023-08-24T14:27:16;8.75;;;4.05;;
38859;SDS011;24609;48.316;16.174;2023-08-24T14:29:42;5.43;;;3.80;;
38859;SDS011;24609;48.316;16.174;2023-08-24T14:32:07;6.85;;;3.88;;
38859;SDS011;24609;48.316;16.174;2023-08-24T14:34:33;5.25;;;4.05;;
38859;SDS011;24609;48.316;16.174;2023-08-24T14:36:59;4.95;;;3.85;;
38859;SDS011;24609;48.316;16.174;2023-08-24T14:39:25;5.38;;;3.65;;